createdAt,value
2023-05-31T00:00:34.045Z,33.96
2023-05-31T00:01:34.079Z,33.90
2023-05-31T00:02:34.229Z,33.92
2023-05-31T00:03:34.221Z,33.87
2023-05-31T00:04:34.172Z,33.92
2023-05-31T00:05:34.181Z,33.87
2023-05-31T00:06:34.249Z,33.91
2023-05-31T00:07:34.215Z,33.92
2023-05-31T00:08:34.262Z,33.87
2023-05-31T00:09:34.276Z,33.90
2023-05-31T00:10:34.307Z,33.91
2023-05-31T00:11:34.311Z,33.89
2023-05-31T00:12:34.347Z,33.91
2023-05-31T00:13:34.403Z,33.87
2023-05-31T00:14:34.402Z,33.91
2023-05-31T00:15:34.401Z,33.87
2023-05-31T00:17:49.861Z,33.87
2023-05-31T00:18:35.508Z,33.88
2023-05-31T00:19:34.438Z,33.88
2023-05-31T00:20:34.516Z,33.92
2023-05-31T00:21:34.432Z,33.86
2023-05-31T00:22:34.417Z,33.89
2023-05-31T00:23:34.413Z,33.84
2023-05-31T00:24:34.399Z,33.84
2023-05-31T00:25:34.372Z,33.83
2023-05-31T00:26:34.401Z,33.88
2023-05-31T00:27:34.362Z,33.90
2023-05-31T00:28:34.426Z,33.85
2023-05-31T00:29:34.323Z,33.88
2023-05-31T00:30:34.447Z,33.85
2023-05-31T00:31:34.413Z,33.85
2023-05-31T00:32:34.340Z,33.87
2023-05-31T00:33:34.339Z,33.86
2023-05-31T00:34:34.294Z,33.83
2023-05-31T00:35:34.356Z,33.87
2023-05-31T00:36:34.370Z,33.83
2023-05-31T00:37:34.389Z,33.85
2023-05-31T00:38:34.441Z,33.88
2023-05-31T00:39:34.440Z,33.85
2023-05-31T00:40:34.503Z,33.85
2023-05-31T00:41:34.565Z,33.85
2023-05-31T00:42:34.586Z,33.84
2023-05-31T00:43:34.632Z,33.85
2023-05-31T00:44:34.648Z,33.85
2023-05-31T00:45:34.702Z,33.84
2023-05-31T00:46:34.698Z,33.88
2023-05-31T00:47:34.728Z,33.83
2023-05-31T00:48:34.796Z,33.83
2023-05-31T00:49:34.761Z,33.83
2023-05-31T00:50:34.779Z,33.83
2023-05-31T00:51:34.809Z,33.84
2023-05-31T00:52:34.849Z,33.87
2023-05-31T00:53:34.968Z,33.83
2023-05-31T00:54:34.905Z,33.89
2023-05-31T00:55:34.953Z,33.81
2023-05-31T00:56:34.987Z,33.82
2023-05-31T00:57:34.973Z,33.83
2023-05-31T00:58:35.017Z,33.84
2023-05-31T00:59:35.106Z,33.83
2023-05-31T01:00:35.094Z,33.84
2023-05-31T01:01:35.288Z,33.80
2023-05-31T01:02:35.197Z,33.79
2023-05-31T01:03:35.226Z,33.83
2023-05-31T01:04:35.215Z,33.81
2023-05-31T01:05:35.244Z,33.81
2023-05-31T01:06:35.259Z,33.80
2023-05-31T01:07:35.286Z,33.82
2023-05-31T01:08:35.345Z,33.85
2023-05-31T01:09:35.337Z,33.82
2023-05-31T01:10:35.400Z,33.83
2023-05-31T01:11:35.386Z,33.83
2023-05-31T01:12:35.452Z,33.83
2023-05-31T01:13:35.480Z,33.80
2023-05-31T01:14:35.534Z,33.79
2023-05-31T01:15:35.639Z,33.83
2023-05-31T01:16:35.753Z,33.80
2023-05-31T01:17:35.733Z,33.82
2023-05-31T01:18:35.685Z,33.85
2023-05-31T01:19:35.675Z,33.81
2023-05-31T01:20:35.883Z,33.81
2023-05-31T01:21:35.772Z,33.82
2023-05-31T01:22:35.806Z,33.80
2023-05-31T01:23:37.538Z,33.80
2023-05-31T01:24:35.899Z,33.80
2023-05-31T01:25:36.006Z,33.83
2023-05-31T01:26:35.991Z,33.78
2023-05-31T01:27:36.050Z,33.81
2023-05-31T01:28:36.021Z,33.81
2023-05-31T01:29:36.087Z,33.78
2023-05-31T01:30:36.122Z,33.79
2023-05-31T01:31:36.288Z,33.79
2023-05-31T01:32:36.237Z,33.82
2023-05-31T01:33:36.207Z,33.76
2023-05-31T01:34:36.234Z,33.76
2023-05-31T01:35:36.301Z,33.79
2023-05-31T01:36:36.315Z,33.79
2023-05-31T01:37:36.338Z,33.81
2023-05-31T01:38:36.384Z,33.78
2023-05-31T01:39:36.387Z,33.82
2023-05-31T01:40:36.454Z,33.78
2023-05-31T01:41:36.446Z,33.78
2023-05-31T01:42:36.523Z,33.76
2023-05-31T01:43:36.542Z,33.77
2023-05-31T01:44:36.577Z,33.77
2023-05-31T01:45:36.660Z,33.79
2023-05-31T01:46:36.666Z,33.77
2023-05-31T01:47:36.696Z,33.78
2023-05-31T01:48:36.750Z,33.77
2023-05-31T01:49:36.744Z,33.77
2023-05-31T01:50:36.816Z,33.78
2023-05-31T01:51:36.831Z,33.73
2023-05-31T01:52:36.852Z,33.76
2023-05-31T01:53:36.897Z,33.79
2023-05-31T01:54:36.923Z,33.78
2023-05-31T01:55:36.929Z,33.81
2023-05-31T01:56:36.965Z,33.79
2023-05-31T01:57:36.999Z,33.74
2023-05-31T01:58:37.054Z,33.78
2023-05-31T01:59:37.112Z,33.78
2023-05-31T02:00:37.147Z,33.77
2023-05-31T02:01:37.267Z,33.74
2023-05-31T02:02:37.239Z,33.77
2023-05-31T02:03:37.251Z,33.77
2023-05-31T02:04:37.269Z,33.71
2023-05-31T02:05:37.308Z,33.74
2023-05-31T02:06:37.356Z,33.82
2023-05-31T02:07:37.396Z,33.73
2023-05-31T02:08:37.383Z,33.77
2023-05-31T02:09:37.445Z,33.74
2023-05-31T02:10:37.474Z,33.78
2023-05-31T02:11:37.514Z,33.75
2023-05-31T02:12:37.611Z,33.77
2023-05-31T02:13:37.618Z,33.75
2023-05-31T02:14:37.663Z,33.76
2023-05-31T02:15:37.691Z,33.73
2023-05-31T02:16:37.749Z,33.73
2023-05-31T02:17:37.749Z,33.76
2023-05-31T02:18:37.795Z,33.75
2023-05-31T02:19:37.831Z,33.76
2023-05-31T02:20:37.878Z,33.75
2023-05-31T02:21:37.907Z,33.71
2023-05-31T02:22:37.947Z,33.73
2023-05-31T02:23:37.989Z,33.73
2023-05-31T02:24:38.022Z,33.76
2023-05-31T02:25:38.049Z,33.77
2023-05-31T02:26:38.126Z,33.74
2023-05-31T02:27:38.109Z,33.78
2023-05-31T02:28:38.159Z,33.75
2023-05-31T02:29:38.194Z,33.74
2023-05-31T02:30:38.238Z,33.73
2023-05-31T02:31:38.390Z,33.75
2023-05-31T02:32:38.462Z,33.74
2023-05-31T02:33:38.380Z,33.74
2023-05-31T02:34:38.425Z,33.71
2023-05-31T02:35:38.453Z,33.76
2023-05-31T02:36:38.461Z,33.74
2023-05-31T02:37:38.531Z,33.71
2023-05-31T02:38:38.619Z,33.69
2023-05-31T02:39:38.585Z,33.73
2023-05-31T02:40:38.671Z,33.75
2023-05-31T02:41:38.696Z,33.73
2023-05-31T02:42:38.739Z,33.67
2023-05-31T02:43:38.803Z,33.70
2023-05-31T02:44:38.868Z,33.69
2023-05-31T02:45:38.865Z,33.71
2023-05-31T02:46:38.958Z,33.69
2023-05-31T02:47:39.030Z,33.69
2023-05-31T02:48:39.029Z,33.71
2023-05-31T02:49:39.056Z,33.71
2023-05-31T02:50:39.091Z,33.69
2023-05-31T02:51:39.189Z,33.70
2023-05-31T02:52:39.201Z,33.73
2023-05-31T02:53:39.226Z,33.71
2023-05-31T02:54:39.305Z,33.70
2023-05-31T02:55:39.317Z,33.72
2023-05-31T02:56:39.347Z,33.72
2023-05-31T02:57:39.407Z,33.67
2023-05-31T02:58:39.440Z,33.71
2023-05-31T02:59:39.487Z,33.68
2023-05-31T03:00:39.574Z,33.73
2023-05-31T03:01:39.633Z,33.67
2023-05-31T03:02:39.786Z,33.69
2023-05-31T03:03:39.706Z,33.70
2023-05-31T03:04:39.713Z,33.72
2023-05-31T03:05:39.789Z,33.67
2023-05-31T03:06:39.791Z,33.74
2023-05-31T03:07:39.848Z,33.70
2023-05-31T03:08:39.890Z,33.67
2023-05-31T03:09:39.924Z,33.71
2023-05-31T03:10:39.964Z,33.64
2023-05-31T03:11:40.017Z,33.65
2023-05-31T03:12:40.087Z,33.67
2023-05-31T03:13:40.124Z,33.70
2023-05-31T03:14:40.193Z,33.64
2023-05-31T03:15:40.218Z,33.63
2023-05-31T03:16:40.322Z,33.66
2023-05-31T03:17:40.328Z,33.70
2023-05-31T03:18:40.367Z,33.66
2023-05-31T03:19:40.401Z,33.65
2023-05-31T03:20:40.540Z,33.71
2023-05-31T03:21:40.525Z,33.64
2023-05-31T03:22:40.543Z,33.66
2023-05-31T03:23:40.577Z,33.67
2023-05-31T03:24:40.621Z,33.68
2023-05-31T03:25:40.653Z,33.64
2023-05-31T03:26:40.711Z,33.65
2023-05-31T03:27:40.748Z,33.64
2023-05-31T03:28:40.807Z,33.65
2023-05-31T03:29:40.867Z,33.63
2023-05-31T03:30:40.877Z,33.65
2023-05-31T03:31:40.973Z,33.67
2023-05-31T03:32:41.022Z,33.63
2023-05-31T03:33:41.000Z,33.64
2023-05-31T03:34:41.052Z,33.64
2023-05-31T03:35:41.075Z,33.64
2023-05-31T03:36:41.120Z,33.65
2023-05-31T03:37:41.170Z,33.67
2023-05-31T03:38:41.223Z,33.65
2023-05-31T03:39:41.291Z,33.65
2023-05-31T03:40:41.316Z,33.61
2023-05-31T03:41:41.389Z,33.62
2023-05-31T03:42:41.503Z,33.67
2023-05-31T03:43:41.510Z,33.64
2023-05-31T03:44:41.561Z,33.64
2023-05-31T03:45:41.621Z,33.63
2023-05-31T03:46:41.654Z,33.64
2023-05-31T03:47:41.841Z,33.66
2023-05-31T03:48:41.721Z,33.64
2023-05-31T03:49:41.796Z,33.63
2023-05-31T03:50:41.857Z,33.58
2023-05-31T03:51:41.865Z,33.68
2023-05-31T03:52:41.924Z,33.60
2023-05-31T03:53:41.988Z,33.62
2023-05-31T03:54:42.018Z,33.64
2023-05-31T03:55:42.035Z,33.61
2023-05-31T03:56:42.104Z,33.61
2023-05-31T03:57:42.149Z,33.62
2023-05-31T03:58:42.190Z,33.61
2023-05-31T03:59:42.230Z,33.60
2023-05-31T04:00:42.282Z,33.62
2023-05-31T04:01:42.362Z,33.60
2023-05-31T04:02:52.055Z,33.62
2023-05-31T04:03:43.480Z,33.58
2023-05-31T04:04:42.500Z,33.60
2023-05-31T04:05:42.378Z,33.63
2023-05-31T04:06:42.353Z,33.55
2023-05-31T04:07:42.327Z,33.61
2023-05-31T04:08:42.345Z,33.61
2023-05-31T04:09:42.328Z,33.61
2023-05-31T04:10:42.315Z,33.57
2023-05-31T04:11:42.342Z,33.54
2023-05-31T04:12:42.305Z,33.53
2023-05-31T04:13:42.336Z,33.57
2023-05-31T04:14:42.384Z,33.57
2023-05-31T04:15:42.455Z,33.60
2023-05-31T04:16:42.497Z,33.59
2023-05-31T04:17:42.492Z,33.57
2023-05-31T04:18:42.551Z,33.60
2023-05-31T04:19:42.578Z,33.56
2023-05-31T04:20:42.686Z,33.53
2023-05-31T04:21:42.661Z,33.52
2023-05-31T04:22:42.701Z,33.53
2023-05-31T04:23:42.745Z,33.53
2023-05-31T04:24:42.792Z,33.57
2023-05-31T04:25:42.846Z,33.52
2023-05-31T04:26:42.879Z,33.52
2023-05-31T04:27:42.904Z,33.56
2023-05-31T04:28:43.000Z,33.48
2023-05-31T04:29:43.043Z,33.52
2023-05-31T04:30:43.161Z,33.52
2023-05-31T04:32:44.144Z,33.54
2023-05-31T04:33:43.114Z,33.51
2023-05-31T04:34:43.091Z,33.47
2023-05-31T04:35:43.104Z,33.47
2023-05-31T04:36:43.068Z,33.47
2023-05-31T04:37:43.082Z,33.45
2023-05-31T04:38:43.046Z,33.49
2023-05-31T04:39:43.060Z,33.48
2023-05-31T04:40:43.022Z,33.47
2023-05-31T04:41:43.034Z,33.43
2023-05-31T04:42:43.088Z,33.43
2023-05-31T04:43:43.020Z,33.44
2023-05-31T04:44:43.099Z,33.45
2023-05-31T04:45:43.160Z,33.40
2023-05-31T04:46:43.177Z,33.39
2023-05-31T04:47:43.278Z,33.40
2023-05-31T04:48:43.274Z,33.43
2023-05-31T04:50:43.373Z,33.50
2023-05-31T04:51:43.448Z,33.55
2023-05-31T04:52:43.447Z,33.72
2023-05-31T04:53:43.461Z,33.66
2023-05-31T04:54:43.533Z,33.69
2023-05-31T04:55:43.546Z,34.18
2023-05-31T04:56:43.637Z,34.70
2023-05-31T04:57:43.666Z,35.09
2023-05-31T04:58:43.694Z,35.95
2023-05-31T04:59:43.756Z,36.60
2023-05-31T05:00:43.787Z,36.74
2023-05-31T05:01:44.095Z,36.94
2023-05-31T05:02:43.966Z,37.22
2023-05-31T05:03:44.034Z,38.65
2023-05-31T05:04:43.998Z,39.27
2023-05-31T05:05:44.049Z,41.71
2023-05-31T05:06:44.075Z,40.55
2023-05-31T05:07:44.145Z,40.24
2023-05-31T05:08:44.177Z,40.82
2023-05-31T05:09:44.223Z,40.80
2023-05-31T05:10:44.293Z,41.06
2023-05-31T05:11:44.376Z,42.03
2023-05-31T05:12:44.353Z,42.62
2023-05-31T05:13:44.418Z,41.91
2023-05-31T05:14:44.503Z,41.89
2023-05-31T05:15:44.539Z,42.34
2023-05-31T05:16:44.680Z,42.41
2023-05-31T05:17:44.656Z,42.28
2023-05-31T05:18:44.692Z,42.36
2023-05-31T05:19:44.747Z,42.38
2023-05-31T05:20:44.852Z,42.55
2023-05-31T05:21:44.858Z,42.45
2023-05-31T05:22:44.900Z,42.21
2023-05-31T05:23:44.978Z,42.04
2023-05-31T05:24:44.994Z,42.11
2023-05-31T05:25:45.086Z,41.89
2023-05-31T05:26:45.113Z,41.66
2023-05-31T05:27:45.171Z,41.58
2023-05-31T05:28:45.238Z,41.64
2023-05-31T05:29:45.288Z,41.33
2023-05-31T05:30:45.393Z,41.30
2023-05-31T05:31:45.441Z,40.99
2023-05-31T05:32:45.504Z,40.89
2023-05-31T05:33:45.570Z,40.66
2023-05-31T05:34:45.618Z,40.62
2023-05-31T05:35:45.642Z,40.58
2023-05-31T05:36:45.717Z,40.44
2023-05-31T05:37:45.781Z,40.23
2023-05-31T05:38:45.843Z,40.12
2023-05-31T05:39:46.604Z,39.97
2023-05-31T05:40:46.236Z,39.83
2023-05-31T05:41:46.674Z,39.65
2023-05-31T05:42:46.172Z,39.56
2023-05-31T05:43:46.310Z,39.44
2023-05-31T05:44:46.117Z,39.29
2023-05-31T05:45:46.199Z,39.19
2023-05-31T05:46:46.590Z,39.16
2023-05-31T05:47:46.524Z,39.06
2023-05-31T05:48:46.402Z,38.90
2023-05-31T05:49:46.420Z,38.74
2023-05-31T05:50:46.468Z,38.62
2023-05-31T05:51:46.537Z,38.50
2023-05-31T05:52:46.585Z,38.40
2023-05-31T05:53:46.662Z,38.26
2023-05-31T05:54:46.677Z,38.21
2023-05-31T05:55:46.756Z,38.19
2023-05-31T05:56:46.871Z,38.08
2023-05-31T05:57:46.854Z,38.12
2023-05-31T05:58:46.929Z,37.60
2023-05-31T05:59:46.941Z,37.39
2023-05-31T06:00:47.056Z,37.38
2023-05-31T06:01:47.107Z,37.32
2023-05-31T06:02:47.231Z,37.19
2023-05-31T06:03:47.232Z,37.12
2023-05-31T06:04:47.215Z,37.12
2023-05-31T06:05:47.279Z,37.11
2023-05-31T06:06:47.288Z,37.19
2023-05-31T06:07:47.337Z,37.27
2023-05-31T06:08:47.370Z,37.26
2023-05-31T06:09:47.421Z,37.06
2023-05-31T06:10:47.439Z,37.14
2023-05-31T06:11:47.467Z,37.30
2023-05-31T06:12:47.496Z,37.57
2023-05-31T06:13:47.516Z,37.23
2023-05-31T06:14:47.558Z,37.49
2023-05-31T06:15:47.554Z,37.44
2023-05-31T06:16:47.643Z,37.40
2023-05-31T06:17:47.589Z,37.49
2023-05-31T06:18:47.593Z,37.28
2023-05-31T06:19:47.634Z,37.23
2023-05-31T06:20:47.688Z,37.31
2023-05-31T06:21:48.123Z,37.40
2023-05-31T06:22:48.680Z,37.34
2023-05-31T06:23:47.632Z,37.31
2023-05-31T06:24:47.668Z,37.14
2023-05-31T06:25:47.658Z,37.25
2023-05-31T06:26:47.688Z,37.16
2023-05-31T06:27:47.657Z,37.12
2023-05-31T06:28:47.707Z,37.03
2023-05-31T06:29:47.674Z,37.04
2023-05-31T06:30:47.726Z,37.11
2023-05-31T06:31:47.766Z,37.08
2023-05-31T06:32:47.729Z,37.14
2023-05-31T06:33:47.750Z,37.06
2023-05-31T06:34:47.715Z,37.08
2023-05-31T06:35:47.704Z,37.40
2023-05-31T06:36:47.721Z,37.19
2023-05-31T06:37:47.714Z,37.23
2023-05-31T06:38:47.730Z,37.08
2023-05-31T06:39:47.792Z,37.24
2023-05-31T06:40:47.714Z,37.19
2023-05-31T06:41:47.733Z,37.07
2023-05-31T06:42:47.700Z,37.07
2023-05-31T06:43:47.721Z,37.07
2023-05-31T06:44:56.205Z,37.07
2023-05-31T06:45:48.712Z,37.07
2023-05-31T06:46:47.693Z,37.07
2023-05-31T06:47:47.726Z,37.02
2023-05-31T06:48:49.218Z,37.13
2023-05-31T06:49:48.691Z,37.00
2023-05-31T06:50:47.670Z,37.07
2023-05-31T06:51:47.642Z,37.17
2023-05-31T06:52:47.691Z,37.07
2023-05-31T06:53:47.642Z,36.93
2023-05-31T06:54:47.625Z,36.86
2023-05-31T06:55:47.644Z,36.83
2023-05-31T06:56:47.622Z,36.78
2023-05-31T06:57:47.619Z,36.55
2023-05-31T06:58:47.584Z,36.65
2023-05-31T06:59:47.569Z,36.64
2023-05-31T07:00:47.869Z,36.64
2023-05-31T07:01:47.648Z,36.72
2023-05-31T07:02:47.623Z,36.64
2023-05-31T07:03:47.659Z,36.65
2023-05-31T07:04:47.557Z,36.64
2023-05-31T07:05:47.548Z,36.56
2023-05-31T07:06:47.551Z,36.60
2023-05-31T07:07:47.546Z,36.60
2023-05-31T07:08:47.531Z,36.58
2023-05-31T07:09:47.538Z,36.57
2023-05-31T07:10:47.543Z,36.54
2023-05-31T07:11:47.608Z,36.58
2023-05-31T07:12:47.524Z,36.55
2023-05-31T07:13:47.513Z,36.50
2023-05-31T07:14:47.535Z,36.52
2023-05-31T07:15:47.630Z,36.49
2023-05-31T07:16:47.643Z,36.54
2023-05-31T07:17:47.713Z,36.52
2023-05-31T07:18:47.700Z,36.56
2023-05-31T07:19:47.733Z,36.58
2023-05-31T07:20:47.871Z,36.74
2023-05-31T07:21:48.125Z,36.59
2023-05-31T07:22:47.904Z,36.53
2023-05-31T07:23:47.918Z,36.56
2023-05-31T07:24:48.020Z,36.54
2023-05-31T07:25:48.051Z,36.53
2023-05-31T07:26:48.123Z,36.53
2023-05-31T07:27:48.174Z,36.51
2023-05-31T07:28:48.244Z,36.66
2023-05-31T07:29:48.257Z,36.56
2023-05-31T07:30:48.275Z,36.56
2023-05-31T07:31:48.264Z,36.61
2023-05-31T07:32:48.372Z,36.54
2023-05-31T07:33:48.304Z,36.54
2023-05-31T07:35:02.744Z,36.55
2023-05-31T07:35:57.634Z,36.52
2023-05-31T07:36:49.275Z,36.48
2023-05-31T07:37:48.317Z,36.50
2023-05-31T07:38:48.285Z,36.48
2023-05-31T07:39:48.284Z,36.46
2023-05-31T07:40:48.258Z,36.48
2023-05-31T07:41:48.696Z,36.47
2023-05-31T07:42:48.243Z,36.51
2023-05-31T07:43:48.252Z,36.47
2023-05-31T07:44:48.226Z,36.49
2023-05-31T07:45:48.263Z,36.43
2023-05-31T07:46:48.207Z,36.43
2023-05-31T07:47:48.253Z,36.43
2023-05-31T07:48:48.922Z,36.33
2023-05-31T07:49:48.190Z,36.28
2023-05-31T07:50:48.166Z,36.35
2023-05-31T07:51:48.656Z,36.73
2023-05-31T07:52:48.220Z,36.49
2023-05-31T07:53:48.190Z,36.51
2023-05-31T07:54:48.181Z,36.48
2023-05-31T07:55:49.254Z,36.54
2023-05-31T07:56:48.161Z,36.52
2023-05-31T07:57:48.162Z,36.50
2023-05-31T07:58:48.122Z,36.84
2023-05-31T07:59:48.169Z,36.65
2023-05-31T08:00:48.172Z,36.66
2023-05-31T08:01:48.184Z,36.79
2023-05-31T08:02:48.231Z,36.74
2023-05-31T08:03:48.177Z,36.78
2023-05-31T08:04:48.214Z,36.79
2023-05-31T08:05:49.309Z,36.84
2023-05-31T08:06:48.363Z,36.87
2023-05-31T08:07:48.388Z,36.86
2023-05-31T08:08:48.609Z,36.73
2023-05-31T08:09:48.561Z,36.74
2023-05-31T08:10:48.603Z,36.73
2023-05-31T08:11:48.652Z,36.67
2023-05-31T08:12:48.660Z,36.63
2023-05-31T08:13:48.729Z,36.93
2023-05-31T08:14:48.778Z,36.68
2023-05-31T08:15:48.857Z,36.63
2023-05-31T08:16:49.214Z,36.81
2023-05-31T08:17:49.081Z,36.70
2023-05-31T08:18:49.023Z,36.78
2023-05-31T08:19:49.084Z,36.78
2023-05-31T08:20:49.182Z,36.76
2023-05-31T08:21:49.165Z,36.72
2023-05-31T08:22:49.218Z,36.77
2023-05-31T08:23:49.257Z,36.66
2023-05-31T08:24:49.296Z,36.74
2023-05-31T08:25:49.358Z,36.73
2023-05-31T08:26:49.660Z,36.75
2023-05-31T08:27:49.430Z,36.88
2023-05-31T08:28:49.429Z,36.80
2023-05-31T08:29:49.479Z,36.82
2023-05-31T08:30:49.741Z,36.82
2023-05-31T08:31:49.680Z,36.76
2023-05-31T08:32:49.583Z,36.64
2023-05-31T08:33:49.586Z,36.71
2023-05-31T08:34:49.649Z,36.65
2023-05-31T08:35:49.650Z,36.50
2023-05-31T08:36:49.685Z,36.52
2023-05-31T08:37:49.707Z,36.57
2023-05-31T08:38:49.770Z,36.52
2023-05-31T08:39:49.762Z,36.69
2023-05-31T08:40:49.796Z,36.63
2023-05-31T08:41:50.157Z,36.89
2023-05-31T08:42:49.806Z,36.84
2023-05-31T08:43:49.805Z,36.68
2023-05-31T08:44:49.850Z,36.43
2023-05-31T08:45:49.868Z,36.20
2023-05-31T08:46:49.927Z,36.16
2023-05-31T08:47:49.919Z,36.09
2023-05-31T08:48:49.898Z,35.58
2023-05-31T08:49:49.927Z,35.37
2023-05-31T08:50:51.865Z,35.46
2023-05-31T08:51:50.179Z,35.22
2023-05-31T08:52:49.976Z,35.19
2023-05-31T08:53:49.959Z,35.08
2023-05-31T08:54:49.993Z,35.01
2023-05-31T08:55:49.931Z,34.97
2023-05-31T08:56:50.178Z,34.82
2023-05-31T08:57:49.935Z,34.77
2023-05-31T08:58:49.914Z,34.69
2023-05-31T08:59:49.928Z,34.66
2023-05-31T09:00:49.898Z,34.52
2023-05-31T09:01:49.953Z,34.49
2023-05-31T09:02:49.912Z,34.40
2023-05-31T09:03:49.911Z,34.31
2023-05-31T09:04:49.896Z,34.27
2023-05-31T09:05:49.824Z,34.22
2023-05-31T09:06:49.866Z,34.12
2023-05-31T09:07:49.876Z,34.09
2023-05-31T09:08:49.896Z,34.06
2023-05-31T09:09:49.839Z,34.04
2023-05-31T09:10:49.792Z,33.99
2023-05-31T09:11:49.820Z,33.96
2023-05-31T09:12:49.812Z,33.96
2023-05-31T09:13:49.770Z,33.87
2023-05-31T09:14:49.833Z,33.85
2023-05-31T09:15:49.771Z,33.87
2023-05-31T09:16:49.834Z,33.76
2023-05-31T09:17:49.777Z,33.75
2023-05-31T09:18:49.748Z,33.64
2023-05-31T09:19:49.764Z,33.67
2023-05-31T09:20:49.806Z,33.60
2023-05-31T09:21:49.737Z,33.57
2023-05-31T09:22:49.727Z,33.53
2023-05-31T09:23:49.711Z,33.56
2023-05-31T09:24:49.695Z,33.41
2023-05-31T09:25:49.713Z,33.48
2023-05-31T09:26:49.696Z,33.44
2023-05-31T09:27:49.678Z,33.39
2023-05-31T09:28:49.680Z,33.35
2023-05-31T09:29:49.669Z,33.35
2023-05-31T09:30:49.670Z,33.35
2023-05-31T09:31:49.746Z,33.29
2023-05-31T09:32:49.666Z,33.33
2023-05-31T09:33:49.681Z,33.26
2023-05-31T09:34:49.670Z,33.26
2023-05-31T09:35:49.674Z,33.25
2023-05-31T09:36:49.705Z,33.23
2023-05-31T09:37:49.600Z,33.23
2023-05-31T09:38:49.674Z,33.23
2023-05-31T09:39:49.596Z,33.27
2023-05-31T09:40:49.600Z,33.23
2023-05-31T09:41:49.708Z,33.18
2023-05-31T09:42:49.575Z,33.18
2023-05-31T09:43:49.569Z,33.21
2023-05-31T09:44:50.165Z,33.22
2023-05-31T09:45:49.574Z,33.16
2023-05-31T09:46:49.769Z,33.23
2023-05-31T09:47:49.605Z,33.24
2023-05-31T09:48:49.554Z,33.24
2023-05-31T09:49:49.527Z,33.24
2023-05-31T09:50:49.497Z,33.16
2023-05-31T09:51:49.776Z,33.23
2023-05-31T09:52:49.510Z,33.25
2023-05-31T09:53:49.471Z,33.20
2023-05-31T09:54:49.494Z,33.16
2023-05-31T09:55:49.521Z,33.16
2023-05-31T09:56:49.476Z,33.18
2023-05-31T09:57:49.465Z,33.16
2023-05-31T09:58:49.452Z,33.23
2023-05-31T09:59:49.464Z,33.21
2023-05-31T10:00:49.431Z,33.16
2023-05-31T10:01:49.789Z,33.20
2023-05-31T10:02:49.555Z,33.17
2023-05-31T10:03:49.430Z,33.20
2023-05-31T10:04:49.424Z,33.22
2023-05-31T10:05:49.392Z,33.16
2023-05-31T10:06:49.729Z,33.07
2023-05-31T10:07:49.584Z,33.10
2023-05-31T10:08:49.408Z,33.12
2023-05-31T10:09:49.363Z,33.04
2023-05-31T10:10:49.384Z,33.14
2023-05-31T10:11:49.744Z,32.99
2023-05-31T10:12:49.383Z,33.03
2023-05-31T10:13:49.347Z,33.07
2023-05-31T10:14:49.383Z,33.02
2023-05-31T10:15:49.357Z,33.02
2023-05-31T10:16:49.792Z,33.06
2023-05-31T10:17:49.342Z,33.03
2023-05-31T10:18:49.307Z,33.02
2023-05-31T10:19:49.310Z,33.05
2023-05-31T10:20:49.381Z,33.06
2023-05-31T10:21:49.315Z,33.13
2023-05-31T10:22:49.294Z,33.01
2023-05-31T10:23:49.269Z,33.05
2023-05-31T10:24:49.660Z,33.02
2023-05-31T10:25:50.238Z,33.03
2023-05-31T10:26:49.246Z,32.99
2023-05-31T10:27:49.260Z,32.94
2023-05-31T10:28:49.273Z,32.91
2023-05-31T10:29:49.263Z,32.95
2023-05-31T10:30:49.317Z,32.91
2023-05-31T10:31:49.756Z,32.89
2023-05-31T10:32:49.258Z,32.80
2023-05-31T10:33:49.194Z,32.81
2023-05-31T10:34:49.234Z,32.73
2023-05-31T10:35:49.916Z,32.66
2023-05-31T10:36:49.230Z,32.58
2023-05-31T10:37:49.190Z,32.65
2023-05-31T10:38:49.206Z,32.60
2023-05-31T10:39:49.164Z,32.49
2023-05-31T10:40:49.145Z,32.51
2023-05-31T10:41:49.145Z,32.47
2023-05-31T10:42:49.124Z,32.95
2023-05-31T10:43:49.160Z,32.42
2023-05-31T10:44:49.140Z,32.60
2023-05-31T10:45:49.149Z,32.66
2023-05-31T10:46:49.315Z,32.93
2023-05-31T10:47:49.097Z,32.78
2023-05-31T10:48:49.105Z,32.40
2023-05-31T10:49:49.087Z,32.62
2023-05-31T10:50:49.089Z,32.93
2023-05-31T10:51:49.084Z,33.01
2023-05-31T10:52:49.231Z,33.20
2023-05-31T10:53:49.136Z,33.19
2023-05-31T10:54:49.152Z,32.44
2023-05-31T10:55:49.254Z,32.82
2023-05-31T10:56:49.335Z,33.07
2023-05-31T10:57:49.749Z,32.37
2023-05-31T10:58:49.442Z,32.77
2023-05-31T10:59:49.493Z,32.89
2023-05-31T11:00:49.554Z,33.04
2023-05-31T11:01:49.570Z,33.19
2023-05-31T11:02:49.872Z,33.20
2023-05-31T11:03:49.747Z,33.32
2023-05-31T11:04:49.728Z,33.26
2023-05-31T11:05:49.760Z,33.35
2023-05-31T11:06:49.822Z,33.45
2023-05-31T11:07:50.302Z,33.52
2023-05-31T11:08:49.858Z,33.59
2023-05-31T11:09:49.894Z,33.38
2023-05-31T11:10:49.943Z,33.53
2023-05-31T11:11:49.961Z,33.70
2023-05-31T11:12:50.278Z,33.59
2023-05-31T11:13:50.019Z,33.63
2023-05-31T11:14:50.032Z,33.74
2023-05-31T11:15:50.098Z,33.67
2023-05-31T11:16:50.181Z,33.77
2023-05-31T11:17:50.252Z,33.76
2023-05-31T11:18:50.094Z,33.61
2023-05-31T11:19:50.108Z,33.73
2023-05-31T11:20:50.245Z,33.73
2023-05-31T11:21:50.128Z,33.37
2023-05-31T11:22:50.221Z,33.54
2023-05-31T11:23:50.128Z,33.69
2023-05-31T11:24:50.136Z,33.67
2023-05-31T11:25:50.164Z,33.80
2023-05-31T11:26:50.180Z,33.84
2023-05-31T11:27:50.157Z,33.71
2023-05-31T11:28:50.145Z,33.49
2023-05-31T11:29:50.142Z,33.37
2023-05-31T11:30:50.151Z,33.62
2023-05-31T11:31:50.193Z,33.51
2023-05-31T11:32:50.283Z,33.49
2023-05-31T11:33:58.035Z,33.56
2023-05-31T11:34:51.187Z,33.69
2023-05-31T11:35:50.198Z,33.90
2023-05-31T11:36:50.141Z,33.93
2023-05-31T11:37:50.283Z,33.79
2023-05-31T11:38:50.147Z,33.64
2023-05-31T11:39:50.178Z,33.61
2023-05-31T11:40:50.160Z,33.57
2023-05-31T11:41:50.095Z,33.45
2023-05-31T11:42:50.269Z,33.35
2023-05-31T11:43:50.128Z,33.33
2023-05-31T11:44:50.049Z,32.98
2023-05-31T11:45:50.057Z,32.54
2023-05-31T11:46:50.091Z,32.91
2023-05-31T11:47:50.371Z,32.40
2023-05-31T11:48:50.053Z,32.38
2023-05-31T11:49:50.057Z,32.41
2023-05-31T11:50:50.036Z,31.99
2023-05-31T11:51:50.029Z,32.41
2023-05-31T11:52:50.238Z,31.65
2023-05-31T11:53:50.014Z,31.50
2023-05-31T11:54:50.379Z,31.46
2023-05-31T11:55:50.005Z,31.63
2023-05-31T11:56:49.987Z,31.44
2023-05-31T11:57:50.235Z,31.54
2023-05-31T11:58:49.981Z,31.49
2023-05-31T11:59:49.974Z,31.17
2023-05-31T12:00:49.954Z,32.01
2023-05-31T12:01:49.971Z,31.11
2023-05-31T12:02:50.109Z,31.01
2023-05-31T12:03:50.125Z,30.96
2023-05-31T12:04:50.208Z,30.87
2023-05-31T12:05:50.100Z,30.82
2023-05-31T12:06:50.146Z,30.61
2023-05-31T12:07:50.296Z,30.76
2023-05-31T12:08:50.217Z,30.57
2023-05-31T12:09:50.270Z,30.54
2023-05-31T12:10:50.268Z,30.50
2023-05-31T12:11:50.319Z,30.43
2023-05-31T12:12:50.770Z,30.68
2023-05-31T12:13:50.417Z,30.94
2023-05-31T12:14:50.444Z,30.48
2023-05-31T12:15:50.500Z,30.67
2023-05-31T12:16:50.507Z,30.31
2023-05-31T12:17:50.988Z,31.21
2023-05-31T12:18:50.545Z,30.33
2023-05-31T12:19:50.615Z,30.25
2023-05-31T12:20:50.858Z,30.85
2023-05-31T12:21:50.712Z,30.10
2023-05-31T12:22:50.737Z,30.22
2023-05-31T12:23:50.777Z,30.30
2023-05-31T12:24:50.808Z,30.11
2023-05-31T12:25:50.918Z,29.75
2023-05-31T12:26:50.904Z,30.10
2023-05-31T12:27:50.941Z,30.14
2023-05-31T12:28:50.976Z,30.52
2023-05-31T12:29:51.023Z,29.84
2023-05-31T12:30:51.045Z,30.66
2023-05-31T12:31:51.198Z,29.90
2023-05-31T12:32:51.147Z,30.80
2023-05-31T12:33:51.195Z,29.81
2023-05-31T12:34:51.272Z,30.20
2023-05-31T12:35:51.256Z,29.53
2023-05-31T12:36:51.334Z,29.92
2023-05-31T12:37:51.801Z,29.92
2023-05-31T12:38:51.446Z,29.30
2023-05-31T12:39:51.443Z,29.51
2023-05-31T12:40:51.516Z,29.50
2023-05-31T12:41:51.561Z,29.39
2023-05-31T12:42:51.850Z,29.43
2023-05-31T12:43:51.634Z,30.45
2023-05-31T12:44:51.649Z,29.36
2023-05-31T12:45:51.743Z,28.99
2023-05-31T12:46:51.729Z,29.30
2023-05-31T12:47:51.859Z,29.29
2023-05-31T12:48:51.919Z,28.68
2023-05-31T12:49:51.876Z,29.91
2023-05-31T12:50:51.954Z,28.65
2023-05-31T12:51:51.994Z,28.97
2023-05-31T12:52:52.023Z,29.21
2023-05-31T12:53:52.043Z,28.64
2023-05-31T12:54:52.082Z,28.54
2023-05-31T12:55:52.169Z,28.85